sensor_id;sensor_type;location;lat;lon;timestamp;temperature;humidity
21121;DHT22;12519;43.318;21.898;2022-10-31T00:02:50;14.1;91.0
21121;DHT22;12519;43.318;21.898;2022-10-31T00:07:26;14.0;91.0
21121;DHT22;12519;43.318;21.898;2022-10-31T00:12:04;14.0;91.0
21121;DHT22;12519;43.318;21.898;2022-10-31T00:16:41;13.8;91.0
21121;DHT22;12519;43.318;21.898;2022-10-31T00:21:20;13.8;91.0
21121;DHT22;12519;43.318;21.898;2022-10-31T00:26:03;13.6;92.0
21121;DHT22;12519;43.318;21.898;2022-10-31T00:30:41;13.6;92.0
21121;DHT22;12519;43.318;21.898;2022-10-31T00:35:18;13.6;92.0
21121;DHT22;12519;43.318;21.898;2022-10-31T00:39:55;13.5;92.0
21121;DHT22;12519;43.318;21.898;2022-10-31T00:44:31;13.5;92.0
21121;DHT22;12519;43.318;21.898;2022-10-31T00:49:08;13.5;92.0
21121;DHT22;12519;43.318;21.898;2022-10-31T00:53:44;13.5;92.0
21121;DHT22;12519;43.318;21.898;2022-10-31T00:58:22;13.5;92.0
21121;DHT22;12519;43.318;21.898;2022-10-31T01:02:59;13.5;92.0
21121;DHT22;12519;43.318;21.898;2022-10-31T01:07:39;13.4;92.0
21121;DHT22;12519;43.318;21.898;2022-10-31T01:12:17;13.4;92.0
21121;DHT22;12519;43.318;21.898;2022-10-31T01:16:54;13.4;92.0
21121;DHT22;12519;43.318;21.898;2022-10-31T01:21:32;13.4;92.0
21121;DHT22;12519;43.318;21.898;2022-10-31T01:26:17;13.2;93.0
21121;DHT22;12519;43.318;21.898;2022-10-31T01:31:05;13.2;93.0
21121;DHT22;12519;43.318;21.898;2022-10-31T01:35:45;13.2;93.0
21121;DHT22;12519;43.318;21.898;2022-10-31T01:40:22;13.0;94.0
21121;DHT22;12519;43.318;21.898;2022-10-31T01:45:02;13.0;94.0
21121;DHT22;12519;43.318;21.898;2022-10-31T01:49:57;13.2;94.0
21121;DHT22;12519;43.318;21.898;2022-10-31T01:54:59;13.2;94.0
21121;DHT22;12519;43.318;21.898;2022-10-31T01:59:57;13.4;93.0
21121;DHT22;12519;43.318;21.898;2022-10-31T02:04:41;13.4;93.0
21121;DHT22;12519;43.318;21.898;2022-10-31T02:09:22;13.5;93.0
21121;DHT22;12519;43.318;21.898;2022-10-31T02:14:03;13.5;93.0
21121;DHT22;12519;43.318;21.898;2022-10-31T02:18:41;13.6;92.0
21121;DHT22;12519;43.318;21.898;2022-10-31T02:24:44;13.6;92.0
21121;DHT22;12519;43.318;21.898;2022-10-31T02:30:15;13.6;92.0
21121;DHT22;12519;43.318;21.898;2022-10-31T02:35:38;13.6;92.0
21121;DHT22;12519;43.318;21.898;2022-10-31T02:40:47;13.5;93.0
21121;DHT22;12519;43.318;21.898;2022-10-31T02:45:51;13.5;93.0
21121;DHT22;12519;43.318;21.898;2022-10-31T02:50:52;13.6;92.0
21121;DHT22;12519;43.318;21.898;2022-10-31T02:56:17;13.6;92.0
21121;DHT22;12519;43.318;21.898;2022-10-31T03:01:45;13.6;92.0
21121;DHT22;12519;43.318;21.898;2022-10-31T03:07:11;13.7;94.0
21121;DHT22;12519;43.318;21.898;2022-10-31T03:12:28;13.7;94.0
21121;DHT22;12519;43.318;21.898;2022-10-31T03:17:37;13.8;95.0
21121;DHT22;12519;43.318;21.898;2022-10-31T03:22:42;13.8;95.0
21121;DHT22;12519;43.318;21.898;2022-10-31T03:27:32;14.3;93.0
21121;DHT22;12519;43.318;21.898;2022-10-31T03:32:25;14.3;93.0
21121;DHT22;12519;43.318;21.898;2022-10-31T03:37:17;14.8;90.0
21121;DHT22;12519;43.318;21.898;2022-10-31T03:42:11;14.8;90.0
21121;DHT22;12519;43.318;21.898;2022-10-31T03:46:52;14.0;91.0
21121;DHT22;12519;43.318;21.898;2022-10-31T03:51:54;14.0;91.0
21121;DHT22;12519;43.318;21.898;2022-10-31T03:57:03;13.2;92.0
21121;DHT22;12519;43.318;21.898;2022-10-31T04:02:09;13.2;92.0
21121;DHT22;12519;43.318;21.898;2022-10-31T04:07:01;13.0;93.0
21121;DHT22;12519;43.318;21.898;2022-10-31T04:11:56;13.0;93.0
21121;DHT22;12519;43.318;21.898;2022-10-31T04:16:45;12.7;94.0
21121;DHT22;12519;43.318;21.898;2022-10-31T04:21:30;12.7;94.0
21121;DHT22;12519;43.318;21.898;2022-10-31T04:26:13;12.7;94.0
21121;DHT22;12519;43.318;21.898;2022-10-31T04:30:50;12.4;94.0
21121;DHT22;12519;43.318;21.898;2022-10-31T04:35:28;12.4;94.0
21121;DHT22;12519;43.318;21.898;2022-10-31T04:40:08;12.2;95.0
21121;DHT22;12519;43.318;21.898;2022-10-31T04:44:47;12.2;95.0
21121;DHT22;12519;43.318;21.898;2022-10-31T04:49:23;12.0;96.0
21121;DHT22;12519;43.318;21.898;2022-10-31T04:54:00;12.0;96.0
21121;DHT22;12519;43.318;21.898;2022-10-31T04:58:36;11.9;96.0
21121;DHT22;12519;43.318;21.898;2022-10-31T05:03:13;11.9;96.0
21121;DHT22;12519;43.318;21.898;2022-10-31T05:07:52;12.2;97.0
21121;DHT22;12519;43.318;21.898;2022-10-31T05:12:30;12.2;97.0
21121;DHT22;12519;43.318;21.898;2022-10-31T05:17:06;12.5;97.0
21121;DHT22;12519;43.318;21.898;2022-10-31T05:21:43;12.5;97.0
21121;DHT22;12519;43.318;21.898;2022-10-31T05:26:19;12.5;97.0
21121;DHT22;12519;43.318;21.898;2022-10-31T05:30:56;14.2;95.0
21121;DHT22;12519;43.318;21.898;2022-10-31T05:35:33;14.2;95.0
21121;DHT22;12519;43.318;21.898;2022-10-31T05:40:18;15.9;92.0
21121;DHT22;12519;43.318;21.898;2022-10-31T05:44:58;15.9;92.0
21121;DHT22;12519;43.318;21.898;2022-10-31T05:49:35;14.9;91.0
21121;DHT22;12519;43.318;21.898;2022-10-31T05:54:12;14.9;91.0
21121;DHT22;12519;43.318;21.898;2022-10-31T05:58:49;13.9;89.0
21121;DHT22;12519;43.318;21.898;2022-10-31T06:03:26;13.9;89.0
21121;DHT22;12519;43.318;21.898;2022-10-31T06:08:02;13.4;91.0
21121;DHT22;12519;43.318;21.898;2022-10-31T06:12:39;13.4;91.0
21121;DHT22;12519;43.318;21.898;2022-10-31T06:17:16;12.8;93.0
21121;DHT22;12519;43.318;21.898;2022-10-31T06:21:52;12.8;93.0
21121;DHT22;12519;43.318;21.898;2022-10-31T06:26:29;12.8;93.0
21121;DHT22;12519;43.318;21.898;2022-10-31T06:31:06;12.9;93.0
21121;DHT22;12519;43.318;21.898;2022-10-31T06:35:47;12.9;93.0
21121;DHT22;12519;43.318;21.898;2022-10-31T06:40:24;13.0;93.0
21121;DHT22;12519;43.318;21.898;2022-10-31T06:45:01;13.0;93.0
21121;DHT22;12519;43.318;21.898;2022-10-31T06:49:39;13.0;93.0
21121;DHT22;12519;43.318;21.898;2022-10-31T06:54:21;13.0;93.0
21121;DHT22;12519;43.318;21.898;2022-10-31T06:58:58;13.0;93.0
21121;DHT22;12519;43.318;21.898;2022-10-31T07:03:35;13.0;93.0
21121;DHT22;12519;43.318;21.898;2022-10-31T07:08:14;13.6;92.0
21121;DHT22;12519;43.318;21.898;2022-10-31T07:12:56;13.6;92.0
21121;DHT22;12519;43.318;21.898;2022-10-31T07:17:36;14.1;91.0
21121;DHT22;12519;43.318;21.898;2022-10-31T07:22:13;14.1;91.0
21121;DHT22;12519;43.318;21.898;2022-10-31T07:26:49;14.1;91.0
21121;DHT22;12519;43.318;21.898;2022-10-31T07:31:26;14.6;89.0
21121;DHT22;12519;43.318;21.898;2022-10-31T07:36:04;14.6;89.0
21121;DHT22;12519;43.318;21.898;2022-10-31T07:40:43;15.2;87.0
21121;DHT22;12519;43.318;21.898;2022-10-31T07:45:21;15.2;87.0
21121;DHT22;12519;43.318;21.898;2022-10-31T07:49:57;15.6;87.0
21121;DHT22;12519;43.318;21.898;2022-10-31T07:54:34;15.6;87.0
21121;DHT22;12519;43.318;21.898;2022-10-31T07:59:11;16.1;87.0
21121;DHT22;12519;43.318;21.898;2022-10-31T08:03:47;16.1;87.0
21121;DHT22;12519;43.318;21.898;2022-10-31T08:08:24;16.7;85.0
21121;DHT22;12519;43.318;21.898;2022-10-31T08:13:09;16.7;85.0
21121;DHT22;12519;43.318;21.898;2022-10-31T08:17:48;17.3;83.0
21121;DHT22;12519;43.318;21.898;2022-10-31T08:22:25;17.3;83.0
21121;DHT22;12519;43.318;21.898;2022-10-31T08:27:02;17.4;83.0
21121;DHT22;12519;43.318;21.898;2022-10-31T08:31:39;17.4;83.0
21121;DHT22;12519;43.318;21.898;2022-10-31T08:36:16;17.4;83.0
21121;DHT22;12519;43.318;21.898;2022-10-31T08:40:53;17.4;82.0
21121;DHT22;12519;43.318;21.898;2022-10-31T08:45:34;17.4;82.0
21121;DHT22;12519;43.318;21.898;2022-10-31T08:50:11;17.6;82.0
21121;DHT22;12519;43.318;21.898;2022-10-31T08:54:47;17.6;82.0
21121;DHT22;12519;43.318;21.898;2022-10-31T08:59:29;17.8;82.0
21121;DHT22;12519;43.318;21.898;2022-10-31T09:04:05;17.8;82.0
21121;DHT22;12519;43.318;21.898;2022-10-31T09:08:42;18.2;81.0
21121;DHT22;12519;43.318;21.898;2022-10-31T09:13:21;18.2;81.0
21121;DHT22;12519;43.318;21.898;2022-10-31T09:17:59;18.6;80.0
21121;DHT22;12519;43.318;21.898;2022-10-31T09:22:36;18.6;80.0
21121;DHT22;12519;43.318;21.898;2022-10-31T09:27:13;18.8;80.0
21121;DHT22;12519;43.318;21.898;2022-10-31T09:31:50;18.8;80.0
21121;DHT22;12519;43.318;21.898;2022-10-31T09:36:27;18.8;80.0
21121;DHT22;12519;43.318;21.898;2022-10-31T09:41:27;18.9;80.0
21121;DHT22;12519;43.318;21.898;2022-10-31T09:47:00;18.9;80.0
21121;DHT22;12519;43.318;21.898;2022-10-31T09:52:21;18.9;80.0
21121;DHT22;12519;43.318;21.898;2022-10-31T09:57:20;18.9;80.0
21121;DHT22;12519;43.318;21.898;2022-10-31T10:02:30;18.9;80.0
21121;DHT22;12519;43.318;21.898;2022-10-31T10:07:41;19.0;80.0
21121;DHT22;12519;43.318;21.898;2022-10-31T10:13:22;19.0;80.0
21121;DHT22;12519;43.318;21.898;2022-10-31T10:18:50;19.1;80.0
21121;DHT22;12519;43.318;21.898;2022-10-31T10:24:22;19.1;80.0
21121;DHT22;12519;43.318;21.898;2022-10-31T10:29:42;19.2;79.0
21121;DHT22;12519;43.318;21.898;2022-10-31T10:34:43;19.2;79.0
21121;DHT22;12519;43.318;21.898;2022-10-31T10:39:41;19.2;79.0
21121;DHT22;12519;43.318;21.898;2022-10-31T10:44:24;19.2;79.0
21121;DHT22;12519;43.318;21.898;2022-10-31T10:49:21;19.4;79.0
21121;DHT22;12519;43.318;21.898;2022-10-31T10:54:45;19.4;79.0
21121;DHT22;12519;43.318;21.898;2022-10-31T10:59:35;19.7;79.0
21121;DHT22;12519;43.318;21.898;2022-10-31T11:04:34;19.7;79.0
21121;DHT22;12519;43.318;21.898;2022-10-31T11:09:15;19.8;78.0
21121;DHT22;12519;43.318;21.898;2022-10-31T11:14:11;19.8;78.0
21121;DHT22;12519;43.318;21.898;2022-10-31T11:19:07;20.0;77.0
21121;DHT22;12519;43.318;21.898;2022-10-31T11:24:16;20.0;77.0
21121;DHT22;12519;43.318;21.898;2022-10-31T11:28:59;20.2;76.0
21121;DHT22;12519;43.318;21.898;2022-10-31T11:33:57;20.2;76.0
21121;DHT22;12519;43.318;21.898;2022-10-31T11:38:44;20.3;76.0
21121;DHT22;12519;43.318;21.898;2022-10-31T11:43:23;20.3;76.0
21121;DHT22;12519;43.318;21.898;2022-10-31T11:48:18;20.6;75.0
21121;DHT22;12519;43.318;21.898;2022-10-31T11:52:59;20.6;75.0
21121;DHT22;12519;43.318;21.898;2022-10-31T11:57:49;20.8;74.0
21121;DHT22;12519;43.318;21.898;2022-10-31T12:02:30;20.8;74.0
21121;DHT22;12519;43.318;21.898;2022-10-31T12:07:08;20.8;74.0
21121;DHT22;12519;43.318;21.898;2022-10-31T12:12:31;21.0;74.0
21121;DHT22;12519;43.318;21.898;2022-10-31T12:17:41;21.1;73.0
21121;DHT22;12519;43.318;21.898;2022-10-31T12:22:58;21.1;73.0
21121;DHT22;12519;43.318;21.898;2022-10-31T12:28:39;21.2;73.0
21121;DHT22;12519;43.318;21.898;2022-10-31T12:34:42;21.2;73.0
21121;DHT22;12519;43.318;21.898;2022-10-31T12:40:36;21.4;72.0
21121;DHT22;12519;43.318;21.898;2022-10-31T12:45:56;21.4;72.0
21121;DHT22;12519;43.318;21.898;2022-10-31T12:51:08;21.6;72.0
21121;DHT22;12519;43.318;21.898;2022-10-31T12:56:37;21.6;72.0
21121;DHT22;12519;43.318;21.898;2022-10-31T13:01:39;21.8;72.0
21121;DHT22;12519;43.318;21.898;2022-10-31T13:06:43;21.8;72.0
21121;DHT22;12519;43.318;21.898;2022-10-31T13:11:45;21.9;71.0
21121;DHT22;12519;43.318;21.898;2022-10-31T13:16:45;21.9;71.0
21121;DHT22;12519;43.318;21.898;2022-10-31T13:21:40;22.0;71.0
21121;DHT22;12519;43.318;21.898;2022-10-31T13:26:44;22.0;71.0
21121;DHT22;12519;43.318;21.898;2022-10-31T13:31:25;22.1;71.0
21121;DHT22;12519;43.318;21.898;2022-10-31T13:36:35;22.1;71.0
21121;DHT22;12519;43.318;21.898;2022-10-31T13:41:48;22.2;71.0
21121;DHT22;12519;43.318;21.898;2022-10-31T13:46:42;22.2;71.0
21121;DHT22;12519;43.318;21.898;2022-10-31T13:51:32;22.2;70.0
21121;DHT22;12519;43.318;21.898;2022-10-31T13:56:24;22.2;70.0
21121;DHT22;12519;43.318;21.898;2022-10-31T14:01:20;22.3;70.0
21121;DHT22;12519;43.318;21.898;2022-10-31T14:05:59;22.3;70.0
21121;DHT22;12519;43.318;21.898;2022-10-31T14:10:51;22.4;70.0
21121;DHT22;12519;43.318;21.898;2022-10-31T14:15:32;22.4;70.0
21121;DHT22;12519;43.318;21.898;2022-10-31T14:20:40;22.4;69.0
21121;DHT22;12519;43.318;21.898;2022-10-31T14:25:35;22.4;69.0
21121;DHT22;12519;43.318;21.898;2022-10-31T14:30:23;22.4;69.0
21121;DHT22;12519;43.318;21.898;2022-10-31T14:35:13;22.4;69.0
21121;DHT22;12519;43.318;21.898;2022-10-31T14:40:26;22.3;69.0
21121;DHT22;12519;43.318;21.898;2022-10-31T14:45:59;22.3;69.0
21121;DHT22;12519;43.318;21.898;2022-10-31T14:50:56;22.2;69.0
21121;DHT22;12519;43.318;21.898;2022-10-31T14:55:48;22.2;69.0
21121;DHT22;12519;43.318;21.898;2022-10-31T15:00:35;22.2;69.0
21121;DHT22;12519;43.318;21.898;2022-10-31T15:05:15;22.2;69.0
21121;DHT22;12519;43.318;21.898;2022-10-31T15:10:01;21.9;70.0
21121;DHT22;12519;43.318;21.898;2022-10-31T15:14:56;21.9;70.0
21121;DHT22;12519;43.318;21.898;2022-10-31T15:19:40;21.6;70.0
21121;DHT22;12519;43.318;21.898;2022-10-31T15:24:32;21.6;70.0
21121;DHT22;12519;43.318;21.898;2022-10-31T15:29:19;21.2;72.0
21121;DHT22;12519;43.318;21.898;2022-10-31T15:34:18;21.2;72.0
21121;DHT22;12519;43.318;21.898;2022-10-31T15:39:02;20.9;73.0
21121;DHT22;12519;43.318;21.898;2022-10-31T15:43:44;20.9;73.0
21121;DHT22;12519;43.318;21.898;2022-10-31T15:48:24;20.5;75.0
21121;DHT22;12519;43.318;21.898;2022-10-31T15:53:06;20.5;75.0
21121;DHT22;12519;43.318;21.898;2022-10-31T15:58:12;20.2;77.0
21121;DHT22;12519;43.318;21.898;2022-10-31T16:03:10;20.2;77.0
21121;DHT22;12519;43.318;21.898;2022-10-31T16:08:00;20.0;78.0
21121;DHT22;12519;43.318;21.898;2022-10-31T16:12:46;20.0;78.0
21121;DHT22;12519;43.318;21.898;2022-10-31T16:17:28;20.0;78.0
21121;DHT22;12519;43.318;21.898;2022-10-31T16:22:18;19.7;79.0
21121;DHT22;12519;43.318;21.898;2022-10-31T16:27:24;19.7;79.0
21121;DHT22;12519;43.318;21.898;2022-10-31T16:32:32;19.7;80.0
21121;DHT22;12519;43.318;21.898;2022-10-31T16:37:27;19.7;80.0
21121;DHT22;12519;43.318;21.898;2022-10-31T16:42:07;19.7;81.0
21121;DHT22;12519;43.318;21.898;2022-10-31T16:46:45;19.7;81.0
21121;DHT22;12519;43.318;21.898;2022-10-31T16:51:22;19.5;81.0
21121;DHT22;12519;43.318;21.898;2022-10-31T16:56:04;19.5;81.0
21121;DHT22;12519;43.318;21.898;2022-10-31T17:00:40;19.3;81.0
21121;DHT22;12519;43.318;21.898;2022-10-31T17:05:22;19.3;81.0
21121;DHT22;12519;43.318;21.898;2022-10-31T17:10:00;19.6;82.0
21121;DHT22;12519;43.318;21.898;2022-10-31T17:14:36;19.6;82.0
21121;DHT22;12519;43.318;21.898;2022-10-31T17:19:14;20.0;82.0
21121;DHT22;12519;43.318;21.898;2022-10-31T17:23:52;20.0;82.0
21121;DHT22;12519;43.318;21.898;2022-10-31T17:28:29;19.6;81.0
21121;DHT22;12519;43.318;21.898;2022-10-31T17:33:14;19.6;81.0
21121;DHT22;12519;43.318;21.898;2022-10-31T17:37:52;19.6;81.0
21121;DHT22;12519;43.318;21.898;2022-10-31T17:42:29;19.2;80.0
21121;DHT22;12519;43.318;21.898;2022-10-31T17:47:06;19.2;80.0
21121;DHT22;12519;43.318;21.898;2022-10-31T17:51:43;18.8;80.0
21121;DHT22;12519;43.318;21.898;2022-10-31T17:56:20;18.8;80.0
21121;DHT22;12519;43.318;21.898;2022-10-31T18:00:58;18.4;80.0
21121;DHT22;12519;43.318;21.898;2022-10-31T18:05:35;18.4;80.0
21121;DHT22;12519;43.318;21.898;2022-10-31T18:10:12;18.2;81.0
21121;DHT22;12519;43.318;21.898;2022-10-31T18:14:50;18.2;81.0
21121;DHT22;12519;43.318;21.898;2022-10-31T18:19:28;18.1;81.0
21121;DHT22;12519;43.318;21.898;2022-10-31T18:24:08;18.1;81.0
21121;DHT22;12519;43.318;21.898;2022-10-31T18:28:45;18.0;82.0
21121;DHT22;12519;43.318;21.898;2022-10-31T18:33:22;18.0;82.0
21121;DHT22;12519;43.318;21.898;2022-10-31T18:37:58;18.0;82.0
21121;DHT22;12519;43.318;21.898;2022-10-31T18:42:35;17.9;82.0
21121;DHT22;12519;43.318;21.898;2022-10-31T18:47:12;17.9;82.0
21121;DHT22;12519;43.318;21.898;2022-10-31T18:51:50;17.7;82.0
21121;DHT22;12519;43.318;21.898;2022-10-31T18:56:29;17.7;82.0
21121;DHT22;12519;43.318;21.898;2022-10-31T19:01:11;17.5;83.0
21121;DHT22;12519;43.318;21.898;2022-10-31T19:05:54;17.5;83.0
21121;DHT22;12519;43.318;21.898;2022-10-31T19:10:34;17.4;83.0
21121;DHT22;12519;43.318;21.898;2022-10-31T19:15:15;17.4;83.0
21121;DHT22;12519;43.318;21.898;2022-10-31T19:19:52;17.2;83.0
21121;DHT22;12519;43.318;21.898;2022-10-31T19:24:29;17.2;83.0
21121;DHT22;12519;43.318;21.898;2022-10-31T19:29:06;17.0;84.0
21121;DHT22;12519;43.318;21.898;2022-10-31T19:33:42;17.0;84.0
21121;DHT22;12519;43.318;21.898;2022-10-31T19:38:19;16.8;84.0
21121;DHT22;12519;43.318;21.898;2022-10-31T19:42:58;16.8;84.0
21121;DHT22;12519;43.318;21.898;2022-10-31T19:47:34;16.8;84.0
21121;DHT22;12519;43.318;21.898;2022-10-31T19:52:10;16.8;85.0
21121;DHT22;12519;43.318;21.898;2022-10-31T19:56:47;16.8;85.0
21121;DHT22;12519;43.318;21.898;2022-10-31T20:01:25;16.7;85.0
21121;DHT22;12519;43.318;21.898;2022-10-31T20:06:04;16.7;85.0
21121;DHT22;12519;43.318;21.898;2022-10-31T20:11:01;16.6;85.0
21121;DHT22;12519;43.318;21.898;2022-10-31T20:15:39;16.6;85.0
21121;DHT22;12519;43.318;21.898;2022-10-31T20:20:16;16.5;85.0
21121;DHT22;12519;43.318;21.898;2022-10-31T20:24:53;16.5;85.0
21121;DHT22;12519;43.318;21.898;2022-10-31T20:29:30;16.4;85.0
21121;DHT22;12519;43.318;21.898;2022-10-31T20:34:07;16.4;85.0
21121;DHT22;12519;43.318;21.898;2022-10-31T20:38:44;16.3;85.0
21121;DHT22;12519;43.318;21.898;2022-10-31T20:43:22;16.3;85.0
21121;DHT22;12519;43.318;21.898;2022-10-31T20:47:59;16.3;85.0
21121;DHT22;12519;43.318;21.898;2022-10-31T20:52:36;16.1;86.0
21121;DHT22;12519;43.318;21.898;2022-10-31T20:57:13;16.1;86.0
21121;DHT22;12519;43.318;21.898;2022-10-31T21:01:49;15.9;86.0
21121;DHT22;12519;43.318;21.898;2022-10-31T21:06:29;15.9;86.0
21121;DHT22;12519;43.318;21.898;2022-10-31T21:11:13;15.8;86.0
21121;DHT22;12519;43.318;21.898;2022-10-31T21:16:01;15.8;86.0
21121;DHT22;12519;43.318;21.898;2022-10-31T21:20:43;15.8;86.0
21121;DHT22;12519;43.318;21.898;2022-10-31T21:25:21;15.8;86.0
21121;DHT22;12519;43.318;21.898;2022-10-31T21:29:58;15.7;86.0
21121;DHT22;12519;43.318;21.898;2022-10-31T21:34:34;15.7;86.0
21121;DHT22;12519;43.318;21.898;2022-10-31T21:39:12;15.6;86.0
21121;DHT22;12519;43.318;21.898;2022-10-31T21:43:52;15.6;86.0
21121;DHT22;12519;43.318;21.898;2022-10-31T21:48:30;15.6;86.0
21121;DHT22;12519;43.318;21.898;2022-10-31T21:53:08;15.3;87.0
21121;DHT22;12519;43.318;21.898;2022-10-31T21:57:45;15.3;87.0
21121;DHT22;12519;43.318;21.898;2022-10-31T22:02:21;15.0;88.0
21121;DHT22;12519;43.318;21.898;2022-10-31T22:06:58;15.0;88.0
21121;DHT22;12519;43.318;21.898;2022-10-31T22:11:35;14.8;89.0
21121;DHT22;12519;43.318;21.898;2022-10-31T22:16:19;14.8;89.0
21121;DHT22;12519;43.318;21.898;2022-10-31T22:21:03;14.5;90.0
21121;DHT22;12519;43.318;21.898;2022-10-31T22:25:42;14.5;90.0
21121;DHT22;12519;43.318;21.898;2022-10-31T22:30:19;15.0;94.0
21121;DHT22;12519;43.318;21.898;2022-10-31T22:34:55;15.0;94.0
21121;DHT22;12519;43.318;21.898;2022-10-31T22:39:32;15.4;97.0
21121;DHT22;12519;43.318;21.898;2022-10-31T22:44:09;15.4;97.0
21121;DHT22;12519;43.318;21.898;2022-10-31T22:48:54;16.2;97.0
21121;DHT22;12519;43.318;21.898;2022-10-31T22:53:40;16.2;97.0
21121;DHT22;12519;43.318;21.898;2022-10-31T22:58:19;16.2;97.0
21121;DHT22;12519;43.318;21.898;2022-10-31T23:02:56;16.9;97.0
21121;DHT22;12519;43.318;21.898;2022-10-31T23:07:33;16.9;97.0
21121;DHT22;12519;43.318;21.898;2022-10-31T23:12:10;16.2;94.0
21121;DHT22;12519;43.318;21.898;2022-10-31T23:16:54;16.2;94.0
21121;DHT22;12519;43.318;21.898;2022-10-31T23:21:34;15.6;91.0
21121;DHT22;12519;43.318;21.898;2022-10-31T23:26:14;15.6;91.0
21121;DHT22;12519;43.318;21.898;2022-10-31T23:30:51;14.9;93.0
21121;DHT22;12519;43.318;21.898;2022-10-31T23:35:27;14.9;93.0
21121;DHT22;12519;43.318;21.898;2022-10-31T23:40:07;14.2;94.0
21121;DHT22;12519;43.318;21.898;2022-10-31T23:44:47;14.2;94.0
21121;DHT22;12519;43.318;21.898;2022-10-31T23:49:24;14.1;95.0
21121;DHT22;12519;43.318;21.898;2022-10-31T23:54:01;14.1;95.0
21121;DHT22;12519;43.318;21.898;2022-10-31T23:58:39;14.1;95.0
